Etusivu
METAR-TAF:

METAR-TAF

Lentoasemat :

Helsinki, Suomi

Helsinki-Vantaan lentoasema

Leveyspiiri: 60-19N, Pituuspiiri: 024-58E, korkeus merenpinnasta: 51 m

Tämänhetkinen sää

Tämä raportti tehtiin 12 tuntia ja 26 minuuttia sitten, kello 14.50 UTC
Tuuli 3 kn pohjoisen/luoteesta
Lämpötila -6°C
Kosteus 68%
Ilmanpaine 1027 hPa
Näkyvyys 10 km tai enemmän
ei pilviä alle 1500 m:ssä eikä cumulonimbus-pilviä

METAR: EFHK 201450Z 33003KT CAVOK M06/M11 Q1027 NOSIG

Aika: 05:16 (03:16 UTC)

Sääennuste

Tämä raportti tehtiin 12 tuntia ja 45 minuuttia sitten, kello 14.31 UTC
Ennuste voimassa 20. päivästä klo 15 UTC - 21. päivään klo 15 UTC
Tuuli 5 kn pohjoisesta
Näkyvyys 10 km tai enemmän
ei pilviä alle 1500 m:ssä eikä cumulonimbus-pilviä
Todennäköisyys 30% :
Ajoittain
21. päivästä klo 03 UTC - 21. päivään klo 08 UTC
Näkyvyys: 5000 m
heikkoa lumisadetta

TAF: EFHK 201431Z 2015/2115 01005KT CAVOK PROB30 TEMPO 2103/2108 5000 -SN

Säähavainnot ja -ennusteet yli 4000 lentoasemalta (METAR- ja TAF-raportit).

Käytössä olevat sääasemat on merkitty karttaan keltaisilla ja punaisilla pisteillä.

Aseta hiiri pisteen päälle nähdäksesi sääaseman nimen.

Klikkaa sitten nähdäksesi säähavainnot ja -ennusteet.

Kartan vaihtaminen: klikkaa mustalla rastilla varustettuja vihreitä pisteitä, niin voit zoomata sisään; viivalla varustettua vihreää pistettä, niin voit zoomata ulos tai vihreitä nuolia, niin pääset viereisille kartoille.


METAR-TAF: